sensor_id;sensor_type;location;lat;lon;timestamp;P1;durP1;ratioP1;P2;durP2;ratioP2
51495;SDS011;37572;52.094;4.870;2023-05-14T00:00:12;22.30;;;13.77;;
51495;SDS011;37572;52.094;4.870;2023-05-14T00:02:40;17.50;;;10.40;;
51495;SDS011;37572;52.094;4.870;2023-05-14T00:05:06;15.68;;;10.02;;
51495;SDS011;37572;52.094;4.870;2023-05-14T00:07:32;20.10;;;11.60;;
51495;SDS011;37572;52.094;4.870;2023-05-14T00:09:57;16.20;;;11.30;;
51495;SDS011;37572;52.094;4.870;2023-05-14T00:12:23;20.98;;;12.50;;
51495;SDS011;37572;52.094;4.870;2023-05-14T00:14:48;21.13;;;12.98;;
51495;SDS011;37572;52.094;4.870;2023-05-14T00:17:14;17.67;;;11.18;;
51495;SDS011;37572;52.094;4.870;2023-05-14T00:19:39;22.08;;;13.52;;
51495;SDS011;37572;52.094;4.870;2023-05-14T00:22:06;20.08;;;12.27;;
51495;SDS011;37572;52.094;4.870;2023-05-14T00:24:33;17.95;;;12.38;;
51495;SDS011;37572;52.094;4.870;2023-05-14T00:26:58;22.08;;;13.57;;
51495;SDS011;37572;52.094;4.870;2023-05-14T00:29:24;21.73;;;13.73;;
51495;SDS011;37572;52.094;4.870;2023-05-14T00:31:49;20.13;;;13.80;;
51495;SDS011;37572;52.094;4.870;2023-05-14T00:34:15;17.33;;;11.60;;
51495;SDS011;37572;52.094;4.870;2023-05-14T00:36:40;21.47;;;12.97;;
51495;SDS011;37572;52.094;4.870;2023-05-14T00:39:05;22.92;;;13.75;;
51495;SDS011;37572;52.094;4.870;2023-05-14T00:41:31;23.33;;;15.07;;
51495;SDS011;37572;52.094;4.870;2023-05-14T00:43:56;23.17;;;14.13;;
51495;SDS011;37572;52.094;4.870;2023-05-14T00:46:22;25.75;;;14.05;;
51495;SDS011;37572;52.094;4.870;2023-05-14T00:48:47;27.05;;;14.80;;
51495;SDS011;37572;52.094;4.870;2023-05-14T00:51:12;23.33;;;15.05;;
51495;SDS011;37572;52.094;4.870;2023-05-14T00:53:38;21.80;;;13.82;;
51495;SDS011;37572;52.094;4.870;2023-05-14T00:56:04;24.60;;;14.18;;
51495;SDS011;37572;52.094;4.870;2023-05-14T00:58:29;21.80;;;14.30;;
51495;SDS011;37572;52.094;4.870;2023-05-14T01:00:55;26.40;;;15.32;;
51495;SDS011;37572;52.094;4.870;2023-05-14T01:03:20;24.60;;;12.97;;
51495;SDS011;37572;52.094;4.870;2023-05-14T01:17:03;15.77;;;10.20;;
51495;SDS011;37572;52.094;4.870;2023-05-14T01:19:38;17.48;;;10.55;;
51495;SDS011;37572;52.094;4.870;2023-05-14T01:22:05;16.25;;;9.32;;
51495;SDS011;37572;52.094;4.870;2023-05-14T01:24:31;19.92;;;10.75;;
51495;SDS011;37572;52.094;4.870;2023-05-14T01:26:59;19.15;;;11.63;;
51495;SDS011;37572;52.094;4.870;2023-05-14T01:29:30;16.67;;;10.02;;
51495;SDS011;37572;52.094;4.870;2023-05-14T01:32:00;19.60;;;12.05;;
51495;SDS011;37572;52.094;4.870;2023-05-14T01:34:30;18.33;;;12.65;;
51495;SDS011;37572;52.094;4.870;2023-05-14T01:36:56;15.55;;;9.40;;
51495;SDS011;37572;52.094;4.870;2023-05-14T01:39:24;19.10;;;11.77;;
51495;SDS011;37572;52.094;4.870;2023-05-14T01:41:51;19.35;;;12.38;;
51495;SDS011;37572;52.094;4.870;2023-05-14T01:44:18;19.25;;;13.25;;
51495;SDS011;37572;52.094;4.870;2023-05-14T01:46:43;19.63;;;11.95;;
51495;SDS011;37572;52.094;4.870;2023-05-14T01:49:08;16.80;;;10.40;;
51495;SDS011;37572;52.094;4.870;2023-05-14T01:51:34;20.63;;;13.10;;
51495;SDS011;37572;52.094;4.870;2023-05-14T01:53:59;16.48;;;10.27;;
51495;SDS011;37572;52.094;4.870;2023-05-14T01:56:25;15.38;;;9.35;;
51495;SDS011;37572;52.094;4.870;2023-05-14T01:58:51;19.17;;;12.32;;
51495;SDS011;37572;52.094;4.870;2023-05-14T02:01:16;17.77;;;11.02;;
51495;SDS011;37572;52.094;4.870;2023-05-14T02:03:41;24.03;;;13.13;;
51495;SDS011;37572;52.094;4.870;2023-05-14T02:06:07;19.27;;;11.07;;
51495;SDS011;37572;52.094;4.870;2023-05-14T02:08:32;19.02;;;11.95;;
51495;SDS011;37572;52.094;4.870;2023-05-14T02:10:57;19.67;;;12.30;;
51495;SDS011;37572;52.094;4.870;2023-05-14T02:13:23;20.40;;;12.33;;
51495;SDS011;37572;52.094;4.870;2023-05-14T02:15:50;18.55;;;12.32;;
51495;SDS011;37572;52.094;4.870;2023-05-14T02:18:15;20.35;;;14.90;;
51495;SDS011;37572;52.094;4.870;2023-05-14T02:20:41;24.40;;;13.80;;
51495;SDS011;37572;52.094;4.870;2023-05-14T02:23:06;19.83;;;13.20;;
51495;SDS011;37572;52.094;4.870;2023-05-14T02:25:31;18.45;;;11.57;;
51495;SDS011;37572;52.094;4.870;2023-05-14T02:27:57;15.43;;;9.93;;
51495;SDS011;37572;52.094;4.870;2023-05-14T02:30:22;15.87;;;9.53;;
51495;SDS011;37572;52.094;4.870;2023-05-14T02:32:47;17.57;;;10.40;;
51495;SDS011;37572;52.094;4.870;2023-05-14T02:35:12;15.40;;;10.03;;
51495;SDS011;37572;52.094;4.870;2023-05-14T02:37:38;17.87;;;11.03;;
51495;SDS011;37572;52.094;4.870;2023-05-14T02:40:03;16.05;;;9.25;;
51495;SDS011;37572;52.094;4.870;2023-05-14T02:42:29;16.65;;;9.75;;
51495;SDS011;37572;52.094;4.870;2023-05-14T02:44:54;16.20;;;10.57;;
51495;SDS011;37572;52.094;4.870;2023-05-14T02:47:19;16.37;;;10.20;;
51495;SDS011;37572;52.094;4.870;2023-05-14T02:49:45;18.33;;;10.10;;
51495;SDS011;37572;52.094;4.870;2023-05-14T02:52:10;21.30;;;12.80;;
51495;SDS011;37572;52.094;4.870;2023-05-14T02:54:36;20.40;;;13.77;;
51495;SDS011;37572;52.094;4.870;2023-05-14T02:57:01;23.63;;;13.83;;
51495;SDS011;37572;52.094;4.870;2023-05-14T02:59:26;22.38;;;13.50;;
51495;SDS011;37572;52.094;4.870;2023-05-14T03:01:51;24.70;;;13.47;;
51495;SDS011;37572;52.094;4.870;2023-05-14T03:04:17;24.35;;;13.00;;
51495;SDS011;37572;52.094;4.870;2023-05-14T03:06:42;22.10;;;13.10;;
51495;SDS011;37572;52.094;4.870;2023-05-14T03:09:07;18.30;;;11.10;;
51495;SDS011;37572;52.094;4.870;2023-05-14T03:11:33;19.52;;;11.55;;
51495;SDS011;37572;52.094;4.870;2023-05-14T03:13:58;18.65;;;10.90;;
51495;SDS011;37572;52.094;4.870;2023-05-14T03:16:24;22.90;;;13.10;;
51495;SDS011;37572;52.094;4.870;2023-05-14T03:18:49;22.45;;;12.82;;
51495;SDS011;37572;52.094;4.870;2023-05-14T03:21:14;19.87;;;11.83;;
51495;SDS011;37572;52.094;4.870;2023-05-14T03:23:40;21.17;;;13.20;;
51495;SDS011;37572;52.094;4.870;2023-05-14T03:26:05;22.45;;;13.68;;
51495;SDS011;37572;52.094;4.870;2023-05-14T03:28:30;23.58;;;13.60;;
51495;SDS011;37572;52.094;4.870;2023-05-14T03:30:56;19.70;;;12.15;;
51495;SDS011;37572;52.094;4.870;2023-05-14T03:33:21;21.40;;;12.68;;
51495;SDS011;37572;52.094;4.870;2023-05-14T03:35:47;22.55;;;13.27;;
51495;SDS011;37572;52.094;4.870;2023-05-14T03:38:12;26.02;;;14.43;;
51495;SDS011;37572;52.094;4.870;2023-05-14T03:40:38;23.17;;;14.30;;
51495;SDS011;37572;52.094;4.870;2023-05-14T03:43:03;24.02;;;14.73;;
51495;SDS011;37572;52.094;4.870;2023-05-14T03:45:28;25.90;;;14.70;;
51495;SDS011;37572;52.094;4.870;2023-05-14T03:47:54;27.35;;;14.55;;
51495;SDS011;37572;52.094;4.870;2023-05-14T03:50:20;30.98;;;15.52;;
51495;SDS011;37572;52.094;4.870;2023-05-14T03:52:45;27.43;;;15.20;;
51495;SDS011;37572;52.094;4.870;2023-05-14T03:55:10;31.55;;;16.38;;
51495;SDS011;37572;52.094;4.870;2023-05-14T03:57:36;28.60;;;15.25;;
51495;SDS011;37572;52.094;4.870;2023-05-14T04:00:02;26.45;;;15.93;;
51495;SDS011;37572;52.094;4.870;2023-05-14T04:02:28;29.55;;;16.25;;
51495;SDS011;37572;52.094;4.870;2023-05-14T04:04:53;29.63;;;16.17;;
51495;SDS011;37572;52.094;4.870;2023-05-14T04:07:18;30.57;;;16.83;;
51495;SDS011;37572;52.094;4.870;2023-05-14T04:09:44;29.53;;;15.37;;
51495;SDS011;37572;52.094;4.870;2023-05-14T04:12:09;26.00;;;14.73;;
51495;SDS011;37572;52.094;4.870;2023-05-14T04:14:34;20.85;;;11.93;;
51495;SDS011;37572;52.094;4.870;2023-05-14T04:17:00;24.67;;;13.03;;
51495;SDS011;37572;52.094;4.870;2023-05-14T04:19:25;19.83;;;10.87;;
51495;SDS011;37572;52.094;4.870;2023-05-14T04:21:50;21.90;;;13.30;;
51495;SDS011;37572;52.094;4.870;2023-05-14T04:24:15;25.53;;;14.10;;
51495;SDS011;37572;52.094;4.870;2023-05-14T04:26:41;26.25;;;15.63;;
51495;SDS011;37572;52.094;4.870;2023-05-14T04:29:07;23.35;;;14.75;;
51495;SDS011;37572;52.094;4.870;2023-05-14T04:31:32;22.53;;;12.03;;
51495;SDS011;37572;52.094;4.870;2023-05-14T04:33:57;20.30;;;12.10;;
51495;SDS011;37572;52.094;4.870;2023-05-14T04:36:23;23.10;;;12.87;;
51495;SDS011;37572;52.094;4.870;2023-05-14T04:38:48;25.50;;;15.13;;
51495;SDS011;37572;52.094;4.870;2023-05-14T04:41:14;24.25;;;13.75;;
51495;SDS011;37572;52.094;4.870;2023-05-14T04:43:39;23.27;;;12.77;;
51495;SDS011;37572;52.094;4.870;2023-05-14T04:46:04;22.60;;;13.27;;
51495;SDS011;37572;52.094;4.870;2023-05-14T04:48:30;22.20;;;14.20;;
51495;SDS011;37572;52.094;4.870;2023-05-14T04:50:55;24.77;;;14.95;;
51495;SDS011;37572;52.094;4.870;2023-05-14T04:53:20;25.67;;;14.07;;
51495;SDS011;37572;52.094;4.870;2023-05-14T04:55:46;24.60;;;13.80;;
51495;SDS011;37572;52.094;4.870;2023-05-14T04:58:11;24.43;;;14.07;;
51495;SDS011;37572;52.094;4.870;2023-05-14T05:00:36;24.57;;;13.43;;
51495;SDS011;37572;52.094;4.870;2023-05-14T05:03:02;21.33;;;12.30;;
51495;SDS011;37572;52.094;4.870;2023-05-14T05:05:28;18.73;;;11.50;;
51495;SDS011;37572;52.094;4.870;2023-05-14T05:07:53;21.02;;;12.35;;
51495;SDS011;37572;52.094;4.870;2023-05-14T05:10:19;21.92;;;12.82;;
51495;SDS011;37572;52.094;4.870;2023-05-14T05:12:44;19.52;;;11.55;;
51495;SDS011;37572;52.094;4.870;2023-05-14T05:15:09;20.65;;;12.57;;
51495;SDS011;37572;52.094;4.870;2023-05-14T05:17:35;18.60;;;11.13;;
51495;SDS011;37572;52.094;4.870;2023-05-14T05:20:01;21.70;;;11.85;;
51495;SDS011;37572;52.094;4.870;2023-05-14T05:22:26;18.00;;;10.93;;
51495;SDS011;37572;52.094;4.870;2023-05-14T05:24:51;22.15;;;12.93;;
51495;SDS011;37572;52.094;4.870;2023-05-14T05:27:17;24.17;;;14.13;;
51495;SDS011;37572;52.094;4.870;2023-05-14T05:29:42;21.87;;;12.87;;
51495;SDS011;37572;52.094;4.870;2023-05-14T05:32:08;23.00;;;14.00;;
51495;SDS011;37572;52.094;4.870;2023-05-14T05:34:34;19.65;;;12.57;;
51495;SDS011;37572;52.094;4.870;2023-05-14T05:37:00;23.48;;;13.45;;
51495;SDS011;37572;52.094;4.870;2023-05-14T05:39:26;21.77;;;14.00;;
51495;SDS011;37572;52.094;4.870;2023-05-14T05:41:52;20.70;;;13.17;;
51495;SDS011;37572;52.094;4.870;2023-05-14T05:44:18;20.80;;;13.38;;
51495;SDS011;37572;52.094;4.870;2023-05-14T05:46:43;21.83;;;13.43;;
51495;SDS011;37572;52.094;4.870;2023-05-14T05:49:08;23.15;;;14.63;;
51495;SDS011;37572;52.094;4.870;2023-05-14T05:51:34;21.13;;;12.13;;
51495;SDS011;37572;52.094;4.870;2023-05-14T05:53:59;22.88;;;13.85;;
51495;SDS011;37572;52.094;4.870;2023-05-14T05:56:24;20.10;;;11.70;;
51495;SDS011;37572;52.094;4.870;2023-05-14T05:58:50;25.25;;;13.68;;
51495;SDS011;37572;52.094;4.870;2023-05-14T06:01:15;21.67;;;14.13;;
51495;SDS011;37572;52.094;4.870;2023-05-14T06:03:40;19.83;;;11.68;;
51495;SDS011;37572;52.094;4.870;2023-05-14T06:06:06;21.85;;;12.52;;
51495;SDS011;37572;52.094;4.870;2023-05-14T06:08:31;22.75;;;13.18;;
51495;SDS011;37572;52.094;4.870;2023-05-14T06:10:57;20.63;;;12.67;;
51495;SDS011;37572;52.094;4.870;2023-05-14T06:13:22;22.20;;;12.93;;
51495;SDS011;37572;52.094;4.870;2023-05-14T06:15:47;19.33;;;10.85;;
51495;SDS011;37572;52.094;4.870;2023-05-14T06:18:13;20.13;;;11.63;;
51495;SDS011;37572;52.094;4.870;2023-05-14T06:20:38;20.77;;;12.47;;
51495;SDS011;37572;52.094;4.870;2023-05-14T06:23:05;20.35;;;12.98;;
51495;SDS011;37572;52.094;4.870;2023-05-14T06:25:31;26.25;;;13.77;;
51495;SDS011;37572;52.094;4.870;2023-05-14T06:27:57;19.33;;;12.05;;
51495;SDS011;37572;52.094;4.870;2023-05-14T06:30:22;22.95;;;13.52;;
51495;SDS011;37572;52.094;4.870;2023-05-14T06:32:48;22.33;;;12.60;;
51495;SDS011;37572;52.094;4.870;2023-05-14T06:35:13;24.30;;;15.60;;
51495;SDS011;37572;52.094;4.870;2023-05-14T06:37:38;19.73;;;12.25;;
51495;SDS011;37572;52.094;4.870;2023-05-14T06:40:04;21.03;;;11.60;;
51495;SDS011;37572;52.094;4.870;2023-05-14T06:42:30;19.63;;;11.80;;
51495;SDS011;37572;52.094;4.870;2023-05-14T06:44:55;22.20;;;13.13;;
51495;SDS011;37572;52.094;4.870;2023-05-14T06:47:20;17.30;;;10.93;;
51495;SDS011;37572;52.094;4.870;2023-05-14T06:49:46;16.88;;;10.57;;
51495;SDS011;37572;52.094;4.870;2023-05-14T06:52:11;24.60;;;12.90;;
51495;SDS011;37572;52.094;4.870;2023-05-14T06:54:36;20.92;;;12.57;;
51495;SDS011;37572;52.094;4.870;2023-05-14T06:57:02;23.77;;;14.73;;
51495;SDS011;37572;52.094;4.870;2023-05-14T06:59:27;25.83;;;14.38;;
51495;SDS011;37572;52.094;4.870;2023-05-14T07:01:52;18.00;;;12.48;;
51495;SDS011;37572;52.094;4.870;2023-05-14T07:04:18;21.03;;;12.67;;
51495;SDS011;37572;52.094;4.870;2023-05-14T07:06:43;16.87;;;10.80;;
51495;SDS011;37572;52.094;4.870;2023-05-14T07:09:08;20.00;;;12.27;;
51495;SDS011;37572;52.094;4.870;2023-05-14T07:11:34;17.40;;;11.43;;
51495;SDS011;37572;52.094;4.870;2023-05-14T07:13:59;15.57;;;10.87;;
51495;SDS011;37572;52.094;4.870;2023-05-14T07:16:25;16.67;;;11.03;;
51495;SDS011;37572;52.094;4.870;2023-05-14T07:18:50;13.45;;;9.95;;
51495;SDS011;37572;52.094;4.870;2023-05-14T07:21:16;16.42;;;10.18;;
51495;SDS011;37572;52.094;4.870;2023-05-14T07:23:42;14.65;;;10.35;;
51495;SDS011;37572;52.094;4.870;2023-05-14T07:26:07;15.65;;;10.13;;
51495;SDS011;37572;52.094;4.870;2023-05-14T07:28:33;18.30;;;11.25;;
51495;SDS011;37572;52.094;4.870;2023-05-14T07:30:58;14.48;;;9.52;;
51495;SDS011;37572;52.094;4.870;2023-05-14T07:33:24;14.68;;;8.75;;
51495;SDS011;37572;52.094;4.870;2023-05-14T07:35:49;12.75;;;8.75;;
51495;SDS011;37572;52.094;4.870;2023-05-14T07:38:15;12.95;;;9.65;;
51495;SDS011;37572;52.094;4.870;2023-05-14T07:40:41;13.40;;;9.52;;
51495;SDS011;37572;52.094;4.870;2023-05-14T07:43:07;16.63;;;10.52;;
51495;SDS011;37572;52.094;4.870;2023-05-14T07:45:32;17.08;;;10.88;;
51495;SDS011;37572;52.094;4.870;2023-05-14T07:47:58;11.43;;;9.80;;
51495;SDS011;37572;52.094;4.870;2023-05-14T07:50:23;13.45;;;9.82;;
51495;SDS011;37572;52.094;4.870;2023-05-14T07:52:49;17.20;;;10.93;;
51495;SDS011;37572;52.094;4.870;2023-05-14T07:55:14;13.87;;;10.13;;
51495;SDS011;37572;52.094;4.870;2023-05-14T07:57:39;15.23;;;10.57;;
51495;SDS011;37572;52.094;4.870;2023-05-14T08:00:05;13.70;;;9.73;;
51495;SDS011;37572;52.094;4.870;2023-05-14T08:02:34;12.57;;;9.20;;
51495;SDS011;37572;52.094;4.870;2023-05-14T08:05:00;12.20;;;9.13;;
51495;SDS011;37572;52.094;4.870;2023-05-14T08:07:25;16.58;;;10.68;;
51495;SDS011;37572;52.094;4.870;2023-05-14T08:09:54;13.93;;;10.35;;
51495;SDS011;37572;52.094;4.870;2023-05-14T08:12:19;15.52;;;10.50;;
51495;SDS011;37572;52.094;4.870;2023-05-14T08:14:44;14.50;;;10.57;;
51495;SDS011;37572;52.094;4.870;2023-05-14T08:17:10;12.90;;;8.75;;
51495;SDS011;37572;52.094;4.870;2023-05-14T08:19:35;16.25;;;10.57;;
51495;SDS011;37572;52.094;4.870;2023-05-14T08:22:01;13.60;;;10.23;;
51495;SDS011;37572;52.094;4.870;2023-05-14T08:24:26;10.50;;;8.43;;
51495;SDS011;37572;52.094;4.870;2023-05-14T08:26:51;13.50;;;10.63;;
51495;SDS011;37572;52.094;4.870;2023-05-14T08:29:17;11.18;;;8.70;;
51495;SDS011;37572;52.094;4.870;2023-05-14T08:31:42;12.75;;;8.85;;
51495;SDS011;37572;52.094;4.870;2023-05-14T08:34:07;15.40;;;10.00;;
51495;SDS011;37572;52.094;4.870;2023-05-14T08:36:33;11.65;;;8.02;;
51495;SDS011;37572;52.094;4.870;2023-05-14T08:38:58;14.00;;;10.00;;
51495;SDS011;37572;52.094;4.870;2023-05-14T08:41:23;12.30;;;8.98;;
51495;SDS011;37572;52.094;4.870;2023-05-14T08:46:14;11.83;;;7.83;;
51495;SDS011;37572;52.094;4.870;2023-05-14T08:48:42;11.98;;;9.02;;
51495;SDS011;37572;52.094;4.870;2023-05-14T08:51:11;10.68;;;7.65;;
51495;SDS011;37572;52.094;4.870;2023-05-14T08:53:37;12.35;;;8.43;;
51495;SDS011;37572;52.094;4.870;2023-05-14T08:56:04;13.00;;;9.70;;
51495;SDS011;37572;52.094;4.870;2023-05-14T08:58:32;14.27;;;9.18;;
51495;SDS011;37572;52.094;4.870;2023-05-14T09:00:58;10.35;;;7.82;;
51495;SDS011;37572;52.094;4.870;2023-05-14T09:03:23;13.88;;;10.13;;
51495;SDS011;37572;52.094;4.870;2023-05-14T09:05:49;10.15;;;7.45;;
51495;SDS011;37572;52.094;4.870;2023-05-14T09:08:16;11.27;;;8.30;;
51495;SDS011;37572;52.094;4.870;2023-05-14T09:10:41;11.73;;;8.75;;
51495;SDS011;37572;52.094;4.870;2023-05-14T09:13:07;12.48;;;8.63;;
51495;SDS011;37572;52.094;4.870;2023-05-14T09:15:34;11.57;;;7.45;;
51495;SDS011;37572;52.094;4.870;2023-05-14T09:18:03;12.52;;;8.93;;
51495;SDS011;37572;52.094;4.870;2023-05-14T09:20:29;13.82;;;9.23;;
51495;SDS011;37572;52.094;4.870;2023-05-14T09:22:56;10.07;;;8.10;;
51495;SDS011;37572;52.094;4.870;2023-05-14T09:25:24;12.20;;;10.23;;
51495;SDS011;37572;52.094;4.870;2023-05-14T09:27:51;12.65;;;9.23;;
51495;SDS011;37572;52.094;4.870;2023-05-14T09:30:18;15.75;;;9.93;;
51495;SDS011;37572;52.094;4.870;2023-05-14T09:32:43;10.20;;;7.40;;
51495;SDS011;37572;52.094;4.870;2023-05-14T09:37:35;12.20;;;9.13;;
51495;SDS011;37572;52.094;4.870;2023-05-14T09:40:07;12.82;;;10.20;;
51495;SDS011;37572;52.094;4.870;2023-05-14T09:42:36;12.00;;;9.68;;
51495;SDS011;37572;52.094;4.870;2023-05-14T09:45:01;13.90;;;8.07;;
51495;SDS011;37572;52.094;4.870;2023-05-14T09:47:28;11.63;;;9.18;;
51495;SDS011;37572;52.094;4.870;2023-05-14T09:49:54;14.93;;;10.07;;
51495;SDS011;37572;52.094;4.870;2023-05-14T09:52:20;13.13;;;8.77;;
51495;SDS011;37572;52.094;4.870;2023-05-14T09:54:48;8.82;;;7.45;;
51495;SDS011;37572;52.094;4.870;2023-05-14T09:57:15;12.52;;;8.40;;
51495;SDS011;37572;52.094;4.870;2023-05-14T09:59:40;11.87;;;7.80;;
51495;SDS011;37572;52.094;4.870;2023-05-14T10:02:06;12.43;;;8.23;;
51495;SDS011;37572;52.094;4.870;2023-05-14T10:04:45;11.95;;;7.90;;
51495;SDS011;37572;52.094;4.870;2023-05-14T10:07:12;12.10;;;7.78;;
51495;SDS011;37572;52.094;4.870;2023-05-14T10:09:39;10.88;;;8.63;;
51495;SDS011;37572;52.094;4.870;2023-05-14T10:12:07;11.00;;;8.00;;
51495;SDS011;37572;52.094;4.870;2023-05-14T10:14:35;10.95;;;8.27;;
51495;SDS011;37572;52.094;4.870;2023-05-14T10:17:07;9.40;;;8.20;;
51495;SDS011;37572;52.094;4.870;2023-05-14T10:19:41;10.43;;;7.65;;
51495;SDS011;37572;52.094;4.870;2023-05-14T10:22:11;10.32;;;6.93;;
51495;SDS011;37572;52.094;4.870;2023-05-14T10:24:41;10.88;;;7.47;;
51495;SDS011;37572;52.094;4.870;2023-05-14T10:27:07;9.50;;;6.97;;
51495;SDS011;37572;52.094;4.870;2023-05-14T10:29:33;9.80;;;7.53;;
51495;SDS011;37572;52.094;4.870;2023-05-14T10:32:04;13.40;;;10.45;;
51495;SDS011;37572;52.094;4.870;2023-05-14T10:34:38;10.25;;;7.00;;
51495;SDS011;37572;52.094;4.870;2023-05-14T10:37:06;10.02;;;8.05;;
51495;SDS011;37572;52.094;4.870;2023-05-14T10:42:33;12.57;;;9.30;;
51495;SDS011;37572;52.094;4.870;2023-05-14T10:45:03;8.43;;;6.72;;
51495;SDS011;37572;52.094;4.870;2023-05-14T10:47:31;11.32;;;7.78;;
51495;SDS011;37572;52.094;4.870;2023-05-14T10:49:58;11.15;;;7.50;;
51495;SDS011;37572;52.094;4.870;2023-05-14T10:52:25;9.70;;;6.00;;
51495;SDS011;37572;52.094;4.870;2023-05-14T10:54:54;11.30;;;8.02;;
51495;SDS011;37572;52.094;4.870;2023-05-14T10:57:22;6.95;;;5.28;;
51495;SDS011;37572;52.094;4.870;2023-05-14T10:59:54;11.90;;;8.98;;
51495;SDS011;37572;52.094;4.870;2023-05-14T11:02:24;10.75;;;7.47;;
51495;SDS011;37572;52.094;4.870;2023-05-14T11:07:26;11.18;;;7.40;;
51495;SDS011;37572;52.094;4.870;2023-05-14T11:09:55;11.00;;;7.25;;
51495;SDS011;37572;52.094;4.870;2023-05-14T11:12:25;10.38;;;6.45;;
51495;SDS011;37572;52.094;4.870;2023-05-14T11:14:51;9.00;;;5.68;;
51495;SDS011;37572;52.094;4.870;2023-05-14T11:17:16;10.02;;;6.05;;
51495;SDS011;37572;52.094;4.870;2023-05-14T11:19:43;10.82;;;7.88;;
51495;SDS011;37572;52.094;4.870;2023-05-14T11:22:12;12.77;;;8.07;;
51495;SDS011;37572;52.094;4.870;2023-05-14T11:24:38;12.02;;;7.82;;
51495;SDS011;37572;52.094;4.870;2023-05-14T11:27:06;11.52;;;8.27;;
51495;SDS011;37572;52.094;4.870;2023-05-14T11:29:33;12.05;;;7.53;;
51495;SDS011;37572;52.094;4.870;2023-05-14T11:32:05;9.43;;;7.50;;
51495;SDS011;37572;52.094;4.870;2023-05-14T11:34:31;12.25;;;9.13;;
51495;SDS011;37572;52.094;4.870;2023-05-14T11:36:56;10.38;;;8.20;;
51495;SDS011;37572;52.094;4.870;2023-05-14T11:39:22;11.07;;;7.27;;
51495;SDS011;37572;52.094;4.870;2023-05-14T11:41:47;10.70;;;7.63;;
51495;SDS011;37572;52.094;4.870;2023-05-14T11:44:12;8.60;;;6.32;;
51495;SDS011;37572;52.094;4.870;2023-05-14T11:46:38;10.07;;;7.05;;
51495;SDS011;37572;52.094;4.870;2023-05-14T11:49:03;9.40;;;5.70;;
51495;SDS011;37572;52.094;4.870;2023-05-14T11:51:29;11.23;;;8.80;;
51495;SDS011;37572;52.094;4.870;2023-05-14T11:53:54;11.53;;;7.27;;
51495;SDS011;37572;52.094;4.870;2023-05-14T11:56:20;10.32;;;7.43;;
51495;SDS011;37572;52.094;4.870;2023-05-14T11:58:47;10.00;;;7.20;;
51495;SDS011;37572;52.094;4.870;2023-05-14T12:01:12;9.55;;;7.63;;
51495;SDS011;37572;52.094;4.870;2023-05-14T12:03:38;11.88;;;6.70;;
51495;SDS011;37572;52.094;4.870;2023-05-14T12:06:05;11.85;;;7.13;;
51495;SDS011;37572;52.094;4.870;2023-05-14T12:08:31;10.82;;;7.25;;
51495;SDS011;37572;52.094;4.870;2023-05-14T12:10:57;9.73;;;7.25;;
51495;SDS011;37572;52.094;4.870;2023-05-14T12:13:27;11.18;;;7.43;;
51495;SDS011;37572;52.094;4.870;2023-05-14T12:15:54;9.70;;;6.70;;
51495;SDS011;37572;52.094;4.870;2023-05-14T12:18:21;12.40;;;7.57;;
51495;SDS011;37572;52.094;4.870;2023-05-14T12:20:49;9.57;;;7.50;;
51495;SDS011;37572;52.094;4.870;2023-05-14T12:23:16;11.35;;;7.18;;
51495;SDS011;37572;52.094;4.870;2023-05-14T12:25:48;10.57;;;7.35;;
51495;SDS011;37572;52.094;4.870;2023-05-14T12:28:15;10.55;;;7.50;;
51495;SDS011;37572;52.094;4.870;2023-05-14T12:30:41;11.35;;;6.53;;
51495;SDS011;37572;52.094;4.870;2023-05-14T12:33:06;9.57;;;6.40;;
51495;SDS011;37572;52.094;4.870;2023-05-14T12:35:31;9.35;;;6.75;;
51495;SDS011;37572;52.094;4.870;2023-05-14T12:37:57;10.52;;;6.82;;
51495;SDS011;37572;52.094;4.870;2023-05-14T12:40:22;11.20;;;6.05;;
51495;SDS011;37572;52.094;4.870;2023-05-14T12:42:48;9.43;;;6.93;;
51495;SDS011;37572;52.094;4.870;2023-05-14T12:45:13;7.17;;;4.10;;
51495;SDS011;37572;52.094;4.870;2023-05-14T12:47:38;8.32;;;5.57;;
51495;SDS011;37572;52.094;4.870;2023-05-14T12:50:04;8.57;;;6.05;;
51495;SDS011;37572;52.094;4.870;2023-05-14T12:52:30;11.95;;;5.32;;
51495;SDS011;37572;52.094;4.870;2023-05-14T12:54:55;10.05;;;7.03;;
51495;SDS011;37572;52.094;4.870;2023-05-14T12:57:21;9.70;;;5.03;;
51495;SDS011;37572;52.094;4.870;2023-05-14T12:59:46;8.02;;;4.63;;
51495;SDS011;37572;52.094;4.870;2023-05-14T13:02:11;8.30;;;4.63;;
51495;SDS011;37572;52.094;4.870;2023-05-14T13:04:37;7.60;;;4.80;;
51495;SDS011;37572;52.094;4.870;2023-05-14T13:07:02;9.10;;;4.53;;
51495;SDS011;37572;52.094;4.870;2023-05-14T13:09:27;9.57;;;6.20;;
51495;SDS011;37572;52.094;4.870;2023-05-14T13:11:53;8.88;;;6.43;;
51495;SDS011;37572;52.094;4.870;2023-05-14T13:14:18;10.18;;;5.75;;
51495;SDS011;37572;52.094;4.870;2023-05-14T13:16:43;9.02;;;6.18;;
51495;SDS011;37572;52.094;4.870;2023-05-14T13:19:09;10.13;;;6.20;;
51495;SDS011;37572;52.094;4.870;2023-05-14T13:21:34;10.15;;;6.93;;
51495;SDS011;37572;52.094;4.870;2023-05-14T13:24:00;7.57;;;6.05;;
51495;SDS011;37572;52.094;4.870;2023-05-14T13:26:25;7.88;;;5.75;;
51495;SDS011;37572;52.094;4.870;2023-05-14T13:28:52;7.00;;;3.95;;
51495;SDS011;37572;52.094;4.870;2023-05-14T13:31:17;10.13;;;7.20;;
51495;SDS011;37572;52.094;4.870;2023-05-14T13:33:43;10.30;;;6.10;;
51495;SDS011;37572;52.094;4.870;2023-05-14T13:36:09;12.70;;;7.85;;
51495;SDS011;37572;52.094;4.870;2023-05-14T13:38:36;12.50;;;7.53;;
51495;SDS011;37572;52.094;4.870;2023-05-14T13:41:01;11.32;;;7.80;;
51495;SDS011;37572;52.094;4.870;2023-05-14T13:43:30;11.85;;;7.70;;
51495;SDS011;37572;52.094;4.870;2023-05-14T13:45:58;10.18;;;7.07;;
51495;SDS011;37572;52.094;4.870;2023-05-14T13:48:25;9.20;;;5.95;;
51495;SDS011;37572;52.094;4.870;2023-05-14T13:50:51;7.72;;;4.40;;
51495;SDS011;37572;52.094;4.870;2023-05-14T13:53:18;10.23;;;5.85;;
51495;SDS011;37572;52.094;4.870;2023-05-14T13:55:44;12.10;;;5.82;;
51495;SDS011;37572;52.094;4.870;2023-05-14T13:58:10;10.10;;;5.80;;
51495;SDS011;37572;52.094;4.870;2023-05-14T14:00:35;9.55;;;4.65;;
51495;SDS011;37572;52.094;4.870;2023-05-14T14:03:00;12.32;;;6.55;;
51495;SDS011;37572;52.094;4.870;2023-05-14T14:05:26;9.85;;;5.80;;
51495;SDS011;37572;52.094;4.870;2023-05-14T14:07:53;12.05;;;6.55;;
51495;SDS011;37572;52.094;4.870;2023-05-14T14:10:19;8.05;;;5.32;;
51495;SDS011;37572;52.094;4.870;2023-05-14T14:12:44;10.20;;;5.53;;
51495;SDS011;37572;52.094;4.870;2023-05-14T14:15:10;11.63;;;6.22;;
51495;SDS011;37572;52.094;4.870;2023-05-14T14:17:35;10.50;;;6.38;;
51495;SDS011;37572;52.094;4.870;2023-05-14T14:20:01;12.88;;;6.45;;
51495;SDS011;37572;52.094;4.870;2023-05-14T14:22:29;13.57;;;6.82;;
51495;SDS011;37572;52.094;4.870;2023-05-14T14:24:55;11.93;;;6.65;;
51495;SDS011;37572;52.094;4.870;2023-05-14T14:27:20;10.98;;;6.15;;
51495;SDS011;37572;52.094;4.870;2023-05-14T14:29:46;10.93;;;6.43;;
51495;SDS011;37572;52.094;4.870;2023-05-14T14:32:11;11.73;;;6.50;;
51495;SDS011;37572;52.094;4.870;2023-05-14T14:34:37;10.18;;;6.60;;
51495;SDS011;37572;52.094;4.870;2023-05-14T14:37:02;11.10;;;6.63;;
51495;SDS011;37572;52.094;4.870;2023-05-14T14:39:27;10.30;;;7.43;;
51495;SDS011;37572;52.094;4.870;2023-05-14T14:41:53;11.60;;;7.17;;